sensor_id;sensor_type;location;lat;lon;timestamp;P1;durP1;ratioP1;P2;durP2;ratioP2
6517;SDS011;3292;48.944;9.240;2022-07-29T00:01:47;6.20;;;5.60;;
6517;SDS011;3292;48.944;9.240;2022-07-29T00:04:16;8.00;;;5.60;;
6517;SDS011;3292;48.944;9.240;2022-07-29T00:06:42;5.80;;;5.20;;
6517;SDS011;3292;48.944;9.240;2022-07-29T00:09:09;5.10;;;4.70;;
6517;SDS011;3292;48.944;9.240;2022-07-29T00:11:36;7.23;;;5.07;;
6517;SDS011;3292;48.944;9.240;2022-07-29T00:14:03;5.57;;;5.07;;
6517;SDS011;3292;48.944;9.240;2022-07-29T00:16:31;6.30;;;5.70;;
6517;SDS011;3292;48.944;9.240;2022-07-29T00:18:57;7.00;;;5.83;;
6517;SDS011;3292;48.944;9.240;2022-07-29T00:21:26;5.63;;;5.07;;
6517;SDS011;3292;48.944;9.240;2022-07-29T00:23:53;6.13;;;5.53;;
6517;SDS011;3292;48.944;9.240;2022-07-29T00:26:19;6.30;;;5.70;;
6517;SDS011;3292;48.944;9.240;2022-07-29T00:28:46;6.07;;;5.47;;
6517;SDS011;3292;48.944;9.240;2022-07-29T00:31:13;6.40;;;5.80;;
6517;SDS011;3292;48.944;9.240;2022-07-29T00:33:40;5.93;;;5.20;;
6517;SDS011;3292;48.944;9.240;2022-07-29T00:36:07;6.90;;;5.70;;
6517;SDS011;3292;48.944;9.240;2022-07-29T00:38:34;7.13;;;5.60;;
6517;SDS011;3292;48.944;9.240;2022-07-29T00:41:01;6.20;;;5.60;;
6517;SDS011;3292;48.944;9.240;2022-07-29T00:43:28;7.57;;;5.70;;
6517;SDS011;3292;48.944;9.240;2022-07-29T00:45:55;6.00;;;5.33;;
6517;SDS011;3292;48.944;9.240;2022-07-29T00:48:21;5.60;;;5.10;;
6517;SDS011;3292;48.944;9.240;2022-07-29T00:50:48;6.27;;;5.47;;
6517;SDS011;3292;48.944;9.240;2022-07-29T00:53:16;6.03;;;5.53;;
6517;SDS011;3292;48.944;9.240;2022-07-29T00:55:44;6.10;;;5.50;;
6517;SDS011;3292;48.944;9.240;2022-07-29T00:58:12;5.40;;;4.90;;
6517;SDS011;3292;48.944;9.240;2022-07-29T01:00:39;6.20;;;5.60;;
6517;SDS011;3292;48.944;9.240;2022-07-29T01:03:06;6.23;;;5.63;;
6517;SDS011;3292;48.944;9.240;2022-07-29T01:05:34;7.63;;;5.67;;
6517;SDS011;3292;48.944;9.240;2022-07-29T01:08:01;5.50;;;5.00;;
6517;SDS011;3292;48.944;9.240;2022-07-29T01:10:29;6.47;;;5.60;;
6517;SDS011;3292;48.944;9.240;2022-07-29T01:12:58;6.17;;;5.67;;
6517;SDS011;3292;48.944;9.240;2022-07-29T01:15:27;6.07;;;5.50;;
6517;SDS011;3292;48.944;9.240;2022-07-29T01:17:57;5.87;;;5.37;;
6517;SDS011;3292;48.944;9.240;2022-07-29T01:20:31;6.33;;;5.80;;
6517;SDS011;3292;48.944;9.240;2022-07-29T01:26:12;5.90;;;5.40;;
6517;SDS011;3292;48.944;9.240;2022-07-29T01:29:00;6.40;;;5.80;;
6517;SDS011;3292;48.944;9.240;2022-07-29T01:31:31;6.23;;;5.63;;
6517;SDS011;3292;48.944;9.240;2022-07-29T01:34:05;6.03;;;5.40;;
6517;SDS011;3292;48.944;9.240;2022-07-29T01:36:35;6.30;;;5.70;;
6517;SDS011;3292;48.944;9.240;2022-07-29T01:39:09;6.90;;;6.20;;
6517;SDS011;3292;48.944;9.240;2022-07-29T01:41:38;8.37;;;5.47;;
6517;SDS011;3292;48.944;9.240;2022-07-29T01:44:14;5.90;;;5.30;;
6517;SDS011;3292;48.944;9.240;2022-07-29T01:46:49;6.60;;;5.90;;
6517;SDS011;3292;48.944;9.240;2022-07-29T01:49:21;5.73;;;5.23;;
6517;SDS011;3292;48.944;9.240;2022-07-29T01:51:50;6.07;;;5.33;;
6517;SDS011;3292;48.944;9.240;2022-07-29T01:54:24;6.67;;;6.00;;
6517;SDS011;3292;48.944;9.240;2022-07-29T01:56:55;6.87;;;5.73;;
6517;SDS011;3292;48.944;9.240;2022-07-29T01:59:28;6.93;;;6.23;;
6517;SDS011;3292;48.944;9.240;2022-07-29T02:01:57;8.37;;;5.83;;
6517;SDS011;3292;48.944;9.240;2022-07-29T02:04:29;6.83;;;6.23;;
6517;SDS011;3292;48.944;9.240;2022-07-29T02:07:01;6.77;;;6.10;;
6517;SDS011;3292;48.944;9.240;2022-07-29T02:09:44;7.87;;;6.10;;
6517;SDS011;3292;48.944;9.240;2022-07-29T02:12:16;6.47;;;5.10;;
6517;SDS011;3292;48.944;9.240;2022-07-29T02:15:03;6.53;;;5.93;;
6517;SDS011;3292;48.944;9.240;2022-07-29T02:17:39;6.83;;;6.17;;
6517;SDS011;3292;48.944;9.240;2022-07-29T02:20:23;6.30;;;5.70;;
6517;SDS011;3292;48.944;9.240;2022-07-29T02:22:52;6.87;;;6.17;;
6517;SDS011;3292;48.944;9.240;2022-07-29T02:25:26;6.80;;;6.10;;
6517;SDS011;3292;48.944;9.240;2022-07-29T02:27:54;7.03;;;6.43;;
6517;SDS011;3292;48.944;9.240;2022-07-29T02:30:39;6.60;;;6.00;;
6517;SDS011;3292;48.944;9.240;2022-07-29T02:33:10;6.47;;;5.87;;
6517;SDS011;3292;48.944;9.240;2022-07-29T02:35:41;6.10;;;5.60;;
6517;SDS011;3292;48.944;9.240;2022-07-29T02:38:13;6.77;;;5.77;;
6517;SDS011;3292;48.944;9.240;2022-07-29T02:41:00;7.13;;;6.00;;
6517;SDS011;3292;48.944;9.240;2022-07-29T02:43:36;6.73;;;6.10;;
6517;SDS011;3292;48.944;9.240;2022-07-29T02:46:07;6.90;;;6.20;;
6517;SDS011;3292;48.944;9.240;2022-07-29T02:48:46;7.43;;;6.73;;
6517;SDS011;3292;48.944;9.240;2022-07-29T02:51:38;6.37;;;5.77;;
6517;SDS011;3292;48.944;9.240;2022-07-29T02:54:19;7.80;;;5.90;;
6517;SDS011;3292;48.944;9.240;2022-07-29T02:56:50;7.43;;;6.00;;
6517;SDS011;3292;48.944;9.240;2022-07-29T02:59:25;6.73;;;6.13;;
6517;SDS011;3292;48.944;9.240;2022-07-29T03:01:57;6.73;;;6.13;;
6517;SDS011;3292;48.944;9.240;2022-07-29T03:04:47;7.10;;;6.40;;
6517;SDS011;3292;48.944;9.240;2022-07-29T03:07:18;9.43;;;6.47;;
6517;SDS011;3292;48.944;9.240;2022-07-29T03:09:56;7.57;;;6.13;;
6517;SDS011;3292;48.944;9.240;2022-07-29T03:12:24;7.10;;;6.50;;
6517;SDS011;3292;48.944;9.240;2022-07-29T03:14:53;7.00;;;6.30;;
6517;SDS011;3292;48.944;9.240;2022-07-29T03:17:23;6.83;;;6.23;;
6517;SDS011;3292;48.944;9.240;2022-07-29T03:19:50;7.53;;;6.83;;
6517;SDS011;3292;48.944;9.240;2022-07-29T03:22:17;7.30;;;6.60;;
6517;SDS011;3292;48.944;9.240;2022-07-29T03:24:45;6.73;;;6.13;;
6517;SDS011;3292;48.944;9.240;2022-07-29T03:27:12;7.00;;;6.07;;
6517;SDS011;3292;48.944;9.240;2022-07-29T03:29:42;7.07;;;6.37;;
6517;SDS011;3292;48.944;9.240;2022-07-29T03:32:12;7.03;;;6.33;;
6517;SDS011;3292;48.944;9.240;2022-07-29T03:34:44;6.30;;;5.70;;
6517;SDS011;3292;48.944;9.240;2022-07-29T03:37:11;7.80;;;6.63;;
6517;SDS011;3292;48.944;9.240;2022-07-29T03:39:50;6.70;;;6.10;;
6517;SDS011;3292;48.944;9.240;2022-07-29T03:42:23;7.10;;;6.40;;
6517;SDS011;3292;48.944;9.240;2022-07-29T03:44:56;8.53;;;6.53;;
6517;SDS011;3292;48.944;9.240;2022-07-29T03:47:26;7.27;;;6.67;;
6517;SDS011;3292;48.944;9.240;2022-07-29T03:50:00;7.20;;;6.60;;
6517;SDS011;3292;48.944;9.240;2022-07-29T03:52:32;7.50;;;6.80;;
6517;SDS011;3292;48.944;9.240;2022-07-29T03:55:01;7.37;;;6.77;;
6517;SDS011;3292;48.944;9.240;2022-07-29T03:57:30;7.77;;;6.70;;
6517;SDS011;3292;48.944;9.240;2022-07-29T04:00:07;7.37;;;6.70;;
6517;SDS011;3292;48.944;9.240;2022-07-29T04:02:36;6.83;;;6.03;;
6517;SDS011;3292;48.944;9.240;2022-07-29T04:05:07;7.37;;;6.67;;
6517;SDS011;3292;48.944;9.240;2022-07-29T04:07:46;7.60;;;6.90;;
6517;SDS011;3292;48.944;9.240;2022-07-29T04:10:15;7.93;;;7.07;;
6517;SDS011;3292;48.944;9.240;2022-07-29T04:12:48;7.10;;;6.40;;
6517;SDS011;3292;48.944;9.240;2022-07-29T04:15:16;7.20;;;6.17;;
6517;SDS011;3292;48.944;9.240;2022-07-29T04:17:44;6.97;;;6.30;;
6517;SDS011;3292;48.944;9.240;2022-07-29T04:20:17;6.73;;;6.13;;
6517;SDS011;3292;48.944;9.240;2022-07-29T04:22:49;7.30;;;6.70;;
6517;SDS011;3292;48.944;9.240;2022-07-29T04:25:17;7.20;;;6.50;;
6517;SDS011;3292;48.944;9.240;2022-07-29T04:27:44;7.70;;;6.67;;
6517;SDS011;3292;48.944;9.240;2022-07-29T04:30:37;7.47;;;6.77;;
6517;SDS011;3292;48.944;9.240;2022-07-29T04:33:06;7.30;;;6.40;;
6517;SDS011;3292;48.944;9.240;2022-07-29T04:35:39;6.97;;;6.37;;
6517;SDS011;3292;48.944;9.240;2022-07-29T04:38:10;7.53;;;6.70;;
6517;SDS011;3292;48.944;9.240;2022-07-29T04:40:38;7.53;;;6.83;;
6517;SDS011;3292;48.944;9.240;2022-07-29T04:43:12;7.20;;;6.60;;
6517;SDS011;3292;48.944;9.240;2022-07-29T04:45:40;7.03;;;6.40;;
6517;SDS011;3292;48.944;9.240;2022-07-29T04:48:08;6.83;;;6.23;;
6517;SDS011;3292;48.944;9.240;2022-07-29T04:50:44;6.57;;;6.07;;
6517;SDS011;3292;48.944;9.240;2022-07-29T04:53:15;6.17;;;5.57;;
6517;SDS011;3292;48.944;9.240;2022-07-29T04:55:43;7.13;;;6.13;;
6517;SDS011;3292;48.944;9.240;2022-07-29T05:03:43;7.23;;;6.63;;
6517;SDS011;3292;48.944;9.240;2022-07-29T05:06:19;7.47;;;6.73;;
6517;SDS011;3292;48.944;9.240;2022-07-29T05:08:52;6.80;;;6.20;;
6517;SDS011;3292;48.944;9.240;2022-07-29T05:11:27;7.43;;;6.03;;
6517;SDS011;3292;48.944;9.240;2022-07-29T05:14:05;7.00;;;6.40;;
6517;SDS011;3292;48.944;9.240;2022-07-29T05:16:36;7.20;;;6.50;;
6517;SDS011;3292;48.944;9.240;2022-07-29T05:19:04;7.60;;;6.90;;
6517;SDS011;3292;48.944;9.240;2022-07-29T05:21:34;7.23;;;6.53;;
6517;SDS011;3292;48.944;9.240;2022-07-29T05:24:05;7.33;;;6.37;;
6517;SDS011;3292;48.944;9.240;2022-07-29T05:26:42;6.70;;;5.93;;
6517;SDS011;3292;48.944;9.240;2022-07-29T05:29:16;7.03;;;6.30;;
6517;SDS011;3292;48.944;9.240;2022-07-29T05:31:44;7.13;;;6.37;;
6517;SDS011;3292;48.944;9.240;2022-07-29T05:34:14;7.60;;;6.77;;
6517;SDS011;3292;48.944;9.240;2022-07-29T05:39:30;8.40;;;6.50;;
6517;SDS011;3292;48.944;9.240;2022-07-29T05:41:58;6.50;;;5.90;;
6517;SDS011;3292;48.944;9.240;2022-07-29T05:44:36;7.30;;;6.53;;
6517;SDS011;3292;48.944;9.240;2022-07-29T05:47:04;6.87;;;6.27;;
6517;SDS011;3292;48.944;9.240;2022-07-29T05:49:31;6.40;;;5.90;;
6517;SDS011;3292;48.944;9.240;2022-07-29T05:52:02;6.60;;;6.00;;
6517;SDS011;3292;48.944;9.240;2022-07-29T05:54:35;7.80;;;6.03;;
6517;SDS011;3292;48.944;9.240;2022-07-29T05:57:08;6.27;;;5.67;;
6517;SDS011;3292;48.944;9.240;2022-07-29T05:59:42;6.07;;;5.47;;
6517;SDS011;3292;48.944;9.240;2022-07-29T06:02:18;5.20;;;4.80;;
6517;SDS011;3292;48.944;9.240;2022-07-29T06:04:53;5.53;;;4.67;;
6517;SDS011;3292;48.944;9.240;2022-07-29T06:07:40;4.80;;;4.40;;
6517;SDS011;3292;48.944;9.240;2022-07-29T06:10:13;4.47;;;4.07;;
6517;SDS011;3292;48.944;9.240;2022-07-29T06:12:41;4.97;;;4.47;;
6517;SDS011;3292;48.944;9.240;2022-07-29T06:15:14;5.33;;;4.40;;
6517;SDS011;3292;48.944;9.240;2022-07-29T06:23:38;4.88;;;4.50;;
6517;SDS011;3292;48.944;9.240;2022-07-29T06:26:13;4.65;;;4.28;;
6517;SDS011;3292;48.944;9.240;2022-07-29T06:28:44;4.18;;;3.78;;
6517;SDS011;3292;48.944;9.240;2022-07-29T06:31:15;4.35;;;3.95;;
6517;SDS011;3292;48.944;9.240;2022-07-29T06:33:52;4.50;;;4.10;;
6517;SDS011;3292;48.944;9.240;2022-07-29T06:36:23;4.55;;;4.15;;
6517;SDS011;3292;48.944;9.240;2022-07-29T06:39:00;4.30;;;3.92;;
6517;SDS011;3292;48.944;9.240;2022-07-29T06:41:41;4.15;;;3.70;;
6517;SDS011;3292;48.944;9.240;2022-07-29T06:44:40;3.72;;;3.42;;
6517;SDS011;3292;48.944;9.240;2022-07-29T06:47:44;3.75;;;3.45;;
6517;SDS011;3292;48.944;9.240;2022-07-29T06:50:16;3.78;;;3.40;;
6517;SDS011;3292;48.944;9.240;2022-07-29T06:52:43;4.00;;;3.60;;
6517;SDS011;3292;48.944;9.240;2022-07-29T06:55:23;4.47;;;4.05;;
6517;SDS011;3292;48.944;9.240;2022-07-29T06:57:50;5.18;;;3.88;;
6517;SDS011;3292;48.944;9.240;2022-07-29T07:00:21;5.85;;;3.85;;
6517;SDS011;3292;48.944;9.240;2022-07-29T07:02:49;4.40;;;4.00;;
6517;SDS011;3292;48.944;9.240;2022-07-29T07:05:17;4.95;;;3.40;;
6517;SDS011;3292;48.944;9.240;2022-07-29T07:07:48;4.28;;;3.80;;
6517;SDS011;3292;48.944;9.240;2022-07-29T07:10:31;4.50;;;4.20;;
6517;SDS011;3292;48.944;9.240;2022-07-29T07:13:03;4.32;;;3.92;;
6517;SDS011;3292;48.944;9.240;2022-07-29T07:15:44;4.72;;;4.25;;
6517;SDS011;3292;48.944;9.240;2022-07-29T07:18:23;4.82;;;3.95;;
6517;SDS011;3292;48.944;9.240;2022-07-29T07:21:34;4.65;;;3.78;;
6517;SDS011;3292;48.944;9.240;2022-07-29T07:24:11;3.92;;;3.53;;
6517;SDS011;3292;48.944;9.240;2022-07-29T07:26:41;5.93;;;3.85;;
6517;SDS011;3292;48.944;9.240;2022-07-29T07:29:08;4.55;;;3.50;;
6517;SDS011;3292;48.944;9.240;2022-07-29T07:31:40;3.47;;;3.20;;
6517;SDS011;3292;48.944;9.240;2022-07-29T07:34:08;6.05;;;3.40;;
6517;SDS011;3292;48.944;9.240;2022-07-29T07:36:45;6.72;;;3.63;;
6517;SDS011;3292;48.944;9.240;2022-07-29T07:39:12;4.75;;;4.07;;
6517;SDS011;3292;48.944;9.240;2022-07-29T07:41:43;4.60;;;3.25;;
6517;SDS011;3292;48.944;9.240;2022-07-29T07:44:11;3.55;;;3.25;;
6517;SDS011;3292;48.944;9.240;2022-07-29T07:46:39;4.00;;;3.42;;
6517;SDS011;3292;48.944;9.240;2022-07-29T07:49:07;3.92;;;3.63;;
6517;SDS011;3292;48.944;9.240;2022-07-29T07:51:35;4.13;;;3.25;;
6517;SDS011;3292;48.944;9.240;2022-07-29T07:54:06;4.72;;;3.35;;
6517;SDS011;3292;48.944;9.240;2022-07-29T07:56:52;3.53;;;3.22;;
6517;SDS011;3292;48.944;9.240;2022-07-29T07:59:21;3.85;;;3.55;;
6517;SDS011;3292;48.944;9.240;2022-07-29T08:01:52;4.22;;;3.20;;
6517;SDS011;3292;48.944;9.240;2022-07-29T08:04:42;4.13;;;3.33;;
6517;SDS011;3292;48.944;9.240;2022-07-29T08:07:12;3.78;;;3.47;;
6517;SDS011;3292;48.944;9.240;2022-07-29T08:09:54;3.75;;;3.45;;
6517;SDS011;3292;48.944;9.240;2022-07-29T08:12:33;3.67;;;3.38;;
6517;SDS011;3292;48.944;9.240;2022-07-29T08:15:23;3.65;;;3.33;;
6517;SDS011;3292;48.944;9.240;2022-07-29T08:18:00;3.65;;;3.30;;
6517;SDS011;3292;48.944;9.240;2022-07-29T08:20:32;4.20;;;3.50;;
6517;SDS011;3292;48.944;9.240;2022-07-29T08:23:22;3.75;;;3.30;;
6517;SDS011;3292;48.944;9.240;2022-07-29T08:26:04;3.65;;;3.35;;
6517;SDS011;3292;48.944;9.240;2022-07-29T08:28:36;4.03;;;3.63;;
6517;SDS011;3292;48.944;9.240;2022-07-29T08:31:03;3.60;;;3.28;;
6517;SDS011;3292;48.944;9.240;2022-07-29T08:33:30;7.57;;;3.80;;
6517;SDS011;3292;48.944;9.240;2022-07-29T08:35:58;7.07;;;3.83;;
6517;SDS011;3292;48.944;9.240;2022-07-29T08:38:25;4.28;;;3.78;;
6517;SDS011;3292;48.944;9.240;2022-07-29T08:40:52;4.47;;;3.35;;
6517;SDS011;3292;48.944;9.240;2022-07-29T08:43:19;7.28;;;3.92;;
6517;SDS011;3292;48.944;9.240;2022-07-29T08:45:48;4.03;;;3.60;;
6517;SDS011;3292;48.944;9.240;2022-07-29T08:48:17;4.13;;;3.80;;
6517;SDS011;3292;48.944;9.240;2022-07-29T08:50:46;4.78;;;4.00;;
6517;SDS011;3292;48.944;9.240;2022-07-29T08:53:15;4.00;;;3.60;;
6517;SDS011;3292;48.944;9.240;2022-07-29T08:55:44;4.22;;;3.28;;
6517;SDS011;3292;48.944;9.240;2022-07-29T08:58:12;4.78;;;3.90;;
6517;SDS011;3292;48.944;9.240;2022-07-29T09:00:41;6.45;;;3.95;;
6517;SDS011;3292;48.944;9.240;2022-07-29T09:03:12;6.65;;;3.90;;
6517;SDS011;3292;48.944;9.240;2022-07-29T09:05:42;3.70;;;3.40;;
6517;SDS011;3292;48.944;9.240;2022-07-29T09:08:10;5.88;;;3.40;;
6517;SDS011;3292;48.944;9.240;2022-07-29T09:10:38;5.32;;;4.00;;
6517;SDS011;3292;48.944;9.240;2022-07-29T09:13:05;4.55;;;3.85;;
6517;SDS011;3292;48.944;9.240;2022-07-29T09:15:32;9.07;;;4.20;;
6517;SDS011;3292;48.944;9.240;2022-07-29T09:17:59;6.18;;;3.92;;
6517;SDS011;3292;48.944;9.240;2022-07-29T09:20:28;5.32;;;3.80;;
6517;SDS011;3292;48.944;9.240;2022-07-29T09:23:16;4.78;;;3.90;;
6517;SDS011;3292;48.944;9.240;2022-07-29T09:25:42;4.55;;;3.60;;
6517;SDS011;3292;48.944;9.240;2022-07-29T09:28:10;4.57;;;4.00;;
6517;SDS011;3292;48.944;9.240;2022-07-29T09:30:43;7.47;;;4.00;;
6517;SDS011;3292;48.944;9.240;2022-07-29T09:33:17;4.57;;;4.10;;
6517;SDS011;3292;48.944;9.240;2022-07-29T09:35:45;6.85;;;4.10;;
6517;SDS011;3292;48.944;9.240;2022-07-29T09:38:12;6.07;;;4.20;;
6517;SDS011;3292;48.944;9.240;2022-07-29T09:40:39;6.80;;;4.20;;
6517;SDS011;3292;48.944;9.240;2022-07-29T09:43:10;7.75;;;3.90;;
6517;SDS011;3292;48.944;9.240;2022-07-29T09:45:37;5.28;;;4.18;;
6517;SDS011;3292;48.944;9.240;2022-07-29T09:48:12;4.35;;;3.90;;
6517;SDS011;3292;48.944;9.240;2022-07-29T09:50:41;4.32;;;3.92;;
6517;SDS011;3292;48.944;9.240;2022-07-29T09:53:11;6.57;;;4.90;;
6517;SDS011;3292;48.944;9.240;2022-07-29T09:55:47;6.65;;;4.20;;
6517;SDS011;3292;48.944;9.240;2022-07-29T09:58:15;5.25;;;4.22;;
6517;SDS011;3292;48.944;9.240;2022-07-29T10:00:43;5.03;;;4.15;;
6517;SDS011;3292;48.944;9.240;2022-07-29T10:03:10;5.32;;;3.97;;
6517;SDS011;3292;48.944;9.240;2022-07-29T10:05:38;4.57;;;3.75;;
6517;SDS011;3292;48.944;9.240;2022-07-29T10:08:07;4.13;;;3.72;;
6517;SDS011;3292;48.944;9.240;2022-07-29T10:10:37;5.43;;;4.18;;
6517;SDS011;3292;48.944;9.240;2022-07-29T10:13:05;5.90;;;3.90;;
6517;SDS011;3292;48.944;9.240;2022-07-29T10:15:34;4.40;;;3.53;;
6517;SDS011;3292;48.944;9.240;2022-07-29T10:18:04;5.07;;;3.58;;
6517;SDS011;3292;48.944;9.240;2022-07-29T10:20:32;5.15;;;3.45;;
6517;SDS011;3292;48.944;9.240;2022-07-29T10:22:59;4.55;;;3.60;;
6517;SDS011;3292;48.944;9.240;2022-07-29T10:25:26;5.30;;;3.88;;
6517;SDS011;3292;48.944;9.240;2022-07-29T10:27:54;6.18;;;3.60;;
6517;SDS011;3292;48.944;9.240;2022-07-29T10:30:22;4.43;;;4.00;;
6517;SDS011;3292;48.944;9.240;2022-07-29T10:32:59;7.72;;;4.07;;
6517;SDS011;3292;48.944;9.240;2022-07-29T10:35:43;6.53;;;3.85;;
6517;SDS011;3292;48.944;9.240;2022-07-29T10:38:25;5.80;;;3.95;;
6517;SDS011;3292;48.944;9.240;2022-07-29T10:41:27;5.00;;;3.95;;
6517;SDS011;3292;48.944;9.240;2022-07-29T10:44:08;4.30;;;3.90;;
6517;SDS011;3292;48.944;9.240;2022-07-29T10:46:43;4.35;;;3.67;;
6517;SDS011;3292;48.944;9.240;2022-07-29T10:49:11;4.70;;;3.35;;
6517;SDS011;3292;48.944;9.240;2022-07-29T10:51:53;5.40;;;3.42;;
6517;SDS011;3292;48.944;9.240;2022-07-29T10:54:44;6.30;;;3.72;;
6517;SDS011;3292;48.944;9.240;2022-07-29T10:57:16;5.90;;;3.72;;
6517;SDS011;3292;48.944;9.240;2022-07-29T10:59:47;5.15;;;3.63;;
6517;SDS011;3292;48.944;9.240;2022-07-29T11:05:13;4.80;;;4.13;;
6517;SDS011;3292;48.944;9.240;2022-07-29T11:10:43;5.70;;;3.67;;
6517;SDS011;3292;48.944;9.240;2022-07-29T11:13:10;4.22;;;3.72;;
6517;SDS011;3292;48.944;9.240;2022-07-29T11:18:30;5.55;;;3.80;;
6517;SDS011;3292;48.944;9.240;2022-07-29T11:20:57;4.85;;;3.55;;
6517;SDS011;3292;48.944;9.240;2022-07-29T11:23:26;4.35;;;3.95;;
6517;SDS011;3292;48.944;9.240;2022-07-29T11:26:13;4.72;;;3.78;;
6517;SDS011;3292;48.944;9.240;2022-07-29T11:28:55;5.07;;;4.20;;
6517;SDS011;3292;48.944;9.240;2022-07-29T11:31:34;4.50;;;3.90;;
6517;SDS011;3292;48.944;9.240;2022-07-29T11:42:45;7.00;;;4.30;;
6517;SDS011;3292;48.944;9.240;2022-07-29T11:45:14;5.13;;;3.55;;
6517;SDS011;3292;48.944;9.240;2022-07-29T11:47:47;5.18;;;3.60;;
6517;SDS011;3292;48.944;9.240;2022-07-29T11:50:18;4.60;;;3.30;;
6517;SDS011;3292;48.944;9.240;2022-07-29T11:52:55;3.97;;;3.50;;
6517;SDS011;3292;48.944;9.240;2022-07-29T11:55:23;4.18;;;3.15;;
6517;SDS011;3292;48.944;9.240;2022-07-29T11:57:51;5.80;;;3.42;;
6517;SDS011;3292;48.944;9.240;2022-07-29T12:00:22;5.30;;;3.10;;
6517;SDS011;3292;48.944;9.240;2022-07-29T12:02:51;4.13;;;3.10;;
6517;SDS011;3292;48.944;9.240;2022-07-29T12:05:20;5.20;;;3.40;;
6517;SDS011;3292;48.944;9.240;2022-07-29T12:07:47;5.90;;;3.40;;
6517;SDS011;3292;48.944;9.240;2022-07-29T12:10:14;5.78;;;3.50;;
6517;SDS011;3292;48.944;9.240;2022-07-29T12:12:42;5.10;;;3.55;;
6517;SDS011;3292;48.944;9.240;2022-07-29T12:15:15;5.20;;;3.85;;
6517;SDS011;3292;48.944;9.240;2022-07-29T12:17:45;6.55;;;3.88;;
6517;SDS011;3292;48.944;9.240;2022-07-29T12:20:13;6.43;;;4.70;;
6517;SDS011;3292;48.944;9.240;2022-07-29T12:22:52;8.30;;;4.60;;
6517;SDS011;3292;48.944;9.240;2022-07-29T12:25:20;5.07;;;4.50;;
6517;SDS011;3292;48.944;9.240;2022-07-29T12:27:55;6.53;;;4.55;;
6517;SDS011;3292;48.944;9.240;2022-07-29T12:30:33;7.50;;;4.53;;
6517;SDS011;3292;48.944;9.240;2022-07-29T12:33:09;5.80;;;4.30;;
6517;SDS011;3292;48.944;9.240;2022-07-29T12:35:41;8.05;;;4.65;;
6517;SDS011;3292;48.944;9.240;2022-07-29T12:38:10;7.32;;;4.72;;
6517;SDS011;3292;48.944;9.240;2022-07-29T12:40:38;5.88;;;4.53;;
6517;SDS011;3292;48.944;9.240;2022-07-29T12:43:06;8.00;;;4.18;;
6517;SDS011;3292;48.944;9.240;2022-07-29T12:45:35;5.30;;;4.00;;
6517;SDS011;3292;48.944;9.240;2022-07-29T12:48:03;5.30;;;4.40;;
6517;SDS011;3292;48.944;9.240;2022-07-29T12:50:33;6.47;;;4.18;;
6517;SDS011;3292;48.944;9.240;2022-07-29T12:53:12;6.50;;;4.07;;
6517;SDS011;3292;48.944;9.240;2022-07-29T12:55:40;8.10;;;4.05;;
6517;SDS011;3292;48.944;9.240;2022-07-29T12:58:08;7.72;;;4.03;;
6517;SDS011;3292;48.944;9.240;2022-07-29T13:00:35;6.55;;;4.13;;
6517;SDS011;3292;48.944;9.240;2022-07-29T13:03:03;5.45;;;3.88;;
6517;SDS011;3292;48.944;9.240;2022-07-29T13:05:39;3.95;;;3.20;;
6517;SDS011;3292;48.944;9.240;2022-07-29T13:08:13;5.03;;;3.60;;
6517;SDS011;3292;48.944;9.240;2022-07-29T13:10:41;6.10;;;3.10;;
6517;SDS011;3292;48.944;9.240;2022-07-29T13:13:08;4.10;;;3.30;;
6517;SDS011;3292;48.944;9.240;2022-07-29T13:15:37;5.47;;;3.22;;
6517;SDS011;3292;48.944;9.240;2022-07-29T13:18:04;3.70;;;2.90;;
6517;SDS011;3292;48.944;9.240;2022-07-29T13:20:51;5.57;;;3.08;;
6517;SDS011;3292;48.944;9.240;2022-07-29T13:23:20;4.47;;;3.10;;
6517;SDS011;3292;48.944;9.240;2022-07-29T13:25:47;3.80;;;3.08;;
6517;SDS011;3292;48.944;9.240;2022-07-29T13:28:14;4.90;;;3.47;;
6517;SDS011;3292;48.944;9.240;2022-07-29T13:30:41;3.45;;;3.15;;
6517;SDS011;3292;48.944;9.240;2022-07-29T13:33:08;3.42;;;3.10;;
6517;SDS011;3292;48.944;9.240;2022-07-29T13:35:35;3.75;;;3.35;;
6517;SDS011;3292;48.944;9.240;2022-07-29T13:38:02;4.18;;;3.20;;
6517;SDS011;3292;48.944;9.240;2022-07-29T13:40:31;4.22;;;2.97;;
6517;SDS011;3292;48.944;9.240;2022-07-29T13:43:00;5.07;;;3.10;;
6517;SDS011;3292;48.944;9.240;2022-07-29T13:45:27;3.30;;;3.00;;
6517;SDS011;3292;48.944;9.240;2022-07-29T13:47:54;5.00;;;3.45;;
6517;SDS011;3292;48.944;9.240;2022-07-29T13:50:21;5.15;;;3.20;;
6517;SDS011;3292;48.944;9.240;2022-07-29T13:52:48;5.20;;;3.20;;
6517;SDS011;3292;48.944;9.240;2022-07-29T13:55:15;4.05;;;2.90;;
6517;SDS011;3292;48.944;9.240;2022-07-29T13:57:44;3.28;;;3.00;;
6517;SDS011;3292;48.944;9.240;2022-07-29T14:00:11;4.18;;;3.28;;
6517;SDS011;3292;48.944;9.240;2022-07-29T14:02:40;5.55;;;3.35;;
6517;SDS011;3292;48.944;9.240;2022-07-29T14:05:07;3.60;;;3.17;;
6517;SDS011;3292;48.944;9.240;2022-07-29T14:07:34;3.70;;;3.28;;
6517;SDS011;3292;48.944;9.240;2022-07-29T14:10:02;4.75;;;3.47;;
6517;SDS011;3292;48.944;9.240;2022-07-29T14:12:29;4.07;;;3.30;;
6517;SDS011;3292;48.944;9.240;2022-07-29T14:14:59;4.53;;;3.40;;
6517;SDS011;3292;48.944;9.240;2022-07-29T14:17:25;4.07;;;3.08;;
6517;SDS011;3292;48.944;9.240;2022-07-29T14:19:52;4.82;;;3.83;;
6517;SDS011;3292;48.944;9.240;2022-07-29T14:22:19;4.78;;;3.20;;
6517;SDS011;3292;48.944;9.240;2022-07-29T14:24:46;3.92;;;3.53;;
6517;SDS011;3292;48.944;9.240;2022-07-29T14:27:13;5.20;;;3.45;;
6517;SDS011;3292;48.944;9.240;2022-07-29T14:29:40;7.57;;;4.00;;
6517;SDS011;3292;48.944;9.240;2022-07-29T14:32:08;6.28;;;3.80;;
6517;SDS011;3292;48.944;9.240;2022-07-29T14:34:36;4.65;;;3.90;;
6517;SDS011;3292;48.944;9.240;2022-07-29T14:37:03;4.38;;;3.45;;
6517;SDS011;3292;48.944;9.240;2022-07-29T14:39:31;4.32;;;3.92;;
6517;SDS011;3292;48.944;9.240;2022-07-29T14:41:58;7.18;;;3.95;;
6517;SDS011;3292;48.944;9.240;2022-07-29T14:44:25;5.43;;;3.78;;
6517;SDS011;3292;48.944;9.240;2022-07-29T14:46:56;6.47;;;3.50;;
6517;SDS011;3292;48.944;9.240;2022-07-29T14:49:24;6.53;;;3.70;;
6517;SDS011;3292;48.944;9.240;2022-07-29T14:51:51;4.15;;;3.45;;
6517;SDS011;3292;48.944;9.240;2022-07-29T14:54:18;5.38;;;3.50;;
6517;SDS011;3292;48.944;9.240;2022-07-29T14:56:45;5.25;;;3.70;;
6517;SDS011;3292;48.944;9.240;2022-07-29T14:59:14;6.13;;;4.03;;
6517;SDS011;3292;48.944;9.240;2022-07-29T15:01:41;6.03;;;3.63;;
6517;SDS011;3292;48.944;9.240;2022-07-29T15:04:08;5.95;;;3.88;;
6517;SDS011;3292;48.944;9.240;2022-07-29T15:06:36;4.07;;;3.60;;
6517;SDS011;3292;48.944;9.240;2022-07-29T15:09:03;4.03;;;3.60;;
6517;SDS011;3292;48.944;9.240;2022-07-29T15:11:30;5.00;;;3.85;;
6517;SDS011;3292;48.944;9.240;2022-07-29T15:13:57;5.68;;;3.78;;
6517;SDS011;3292;48.944;9.240;2022-07-29T15:16:24;5.75;;;4.13;;
6517;SDS011;3292;48.944;9.240;2022-07-29T15:18:51;5.70;;;3.83;;
6517;SDS011;3292;48.944;9.240;2022-07-29T15:21:17;6.30;;;3.80;;
6517;SDS011;3292;48.944;9.240;2022-07-29T15:23:46;4.00;;;3.63;;
6517;SDS011;3292;48.944;9.240;2022-07-29T15:26:13;4.88;;;3.72;;
6517;SDS011;3292;48.944;9.240;2022-07-29T15:28:40;7.15;;;4.15;;
6517;SDS011;3292;48.944;9.240;2022-07-29T15:31:07;6.53;;;3.72;;
6517;SDS011;3292;48.944;9.240;2022-07-29T15:33:34;3.47;;;2.40;;
6517;SDS011;3292;48.944;9.240;2022-07-29T15:36:01;2.70;;;2.30;;
6517;SDS011;3292;48.944;9.240;2022-07-29T15:38:29;5.47;;;2.10;;
6517;SDS011;3292;48.944;9.240;2022-07-29T15:40:58;5.65;;;2.30;;
6517;SDS011;3292;48.944;9.240;2022-07-29T15:43:24;4.22;;;2.00;;
6517;SDS011;3292;48.944;9.240;2022-07-29T15:45:51;7.18;;;2.45;;
6517;SDS011;3292;48.944;9.240;2022-07-29T15:48:36;3.40;;;2.20;;
6517;SDS011;3292;48.944;9.240;2022-07-29T15:51:04;5.75;;;2.30;;
6517;SDS011;3292;48.944;9.240;2022-07-29T15:53:31;2.85;;;2.20;;
6517;SDS011;3292;48.944;9.240;2022-07-29T15:55:59;5.40;;;2.15;;
6517;SDS011;3292;48.944;9.240;2022-07-29T15:58:26;4.70;;;2.10;;
6517;SDS011;3292;48.944;9.240;2022-07-29T16:00:53;5.15;;;2.38;;
6517;SDS011;3292;48.944;9.240;2022-07-29T16:03:20;2.72;;;1.92;;
6517;SDS011;3292;48.944;9.240;2022-07-29T16:05:48;3.80;;;2.17;;
6517;SDS011;3292;48.944;9.240;2022-07-29T16:08:15;3.80;;;2.22;;
6517;SDS011;3292;48.944;9.240;2022-07-29T16:10:45;5.07;;;2.17;;
6517;SDS011;3292;48.944;9.240;2022-07-29T16:13:16;4.30;;;2.00;;
6517;SDS011;3292;48.944;9.240;2022-07-29T16:15:43;4.65;;;2.30;;